Thatcher, Ohio
Current Conditions -  °F | °C
As of 11:34 PM on Thursday 18 Dec 2014 (Local Time) from KRZT Reporting Station
Overcast Overcast  
Wind Chill: 23°   Ceiling: 2100
Heat Index: 28°   Visibility: 10mi
Dew Point: 23°   Wind: 5mph
Humidity: 80%   Direction: 330°NNW
Pressure: 30.23"   Gusts: NA
Location:  39.5752°N, 82.907°W
Report Text: KRZT 190434Z AUTO 33004KT 10SM OVC021 M02/M05 A3023 RMK AO2
Loading
Personal Weather Stations






























Interactive Weather Map New forecast layout! Learn more

10-Day Weather Forecast

Advertisements
Track Severe Weather on mobile